Time;durP1;ratioP1;P1;durP2;ratioP2;P2;SDS_P1;SDS_P2;PMS_P1;PMS_P2;Temp;Humidity;BMP_temperature;BMP_pressure;BME280_temperature;BME280_humidity;BME280_pressure;Samples;Min_cycle;Max_cycle;Signal;HPM_P1;HPM_P2
2023/02/14 00:01:42;;;;;;;18.65;12.10;;;5.00;99.90;;;;;;5002014;28;20040;-81
2023/02/14 00:04:08;;;;;;;18.00;11.52;;;5.10;99.90;;;;;;5003645;28;20105;-86
2023/02/14 00:06:34;;;;;;;17.27;11.57;;;5.10;99.90;;;;;;5005857;28;20103;-83
2023/02/14 00:09:01;;;;;;;17.15;11.48;;;5.10;99.90;;;;;;5008221;28;20026;-82
2023/02/14 00:11:27;;;;;;;17.40;11.82;;;5.00;99.90;;;;;;5005052;28;20455;-84
2023/02/14 00:16:37;;;;;;;17.98;12.30;;;5.00;99.90;;;;;;5005737;28;20040;-85
2023/02/14 00:19:02;;;;;;;17.90;11.75;;;5.00;99.90;;;;;;5002252;28;20119;-87
2023/02/14 00:21:29;;;;;;;17.95;11.88;;;4.90;99.90;;;;;;5004278;28;20105;-85
2023/02/14 00:23:54;;;;;;;18.42;12.77;;;4.90;99.90;;;;;;5001353;28;20123;-85
2023/02/14 00:26:22;;;;;;;19.50;12.65;;;4.90;99.90;;;;;;5003793;28;20027;-83
2023/02/14 00:28:48;;;;;;;18.25;12.77;;;4.90;99.90;;;;;;5004931;28;20168;-83
2023/02/14 00:31:13;;;;;;;20.27;13.13;;;4.80;99.90;;;;;;5000931;28;20444;-86
2023/02/14 00:33:39;;;;;;;19.42;13.00;;;4.80;99.90;;;;;;5003367;28;20040;-85
2023/02/14 00:36:06;;;;;;;19.80;12.90;;;4.80;99.90;;;;;;5002727;28;20092;-86
2023/02/14 00:38:35;;;;;;;21.52;13.45;;;4.70;99.90;;;;;;5006531;28;20033;-83
2023/02/14 00:41:01;;;;;;;18.52;12.30;;;4.70;99.90;;;;;;5022059;28;20037;-84
2023/02/14 00:43:26;;;;;;;17.90;12.45;;;4.80;99.90;;;;;;5006951;28;20407;-86
2023/02/14 00:45:52;;;;;;;18.23;12.60;;;4.80;99.90;;;;;;5007124;28;20508;-86
2023/02/14 00:48:18;;;;;;;17.55;12.10;;;4.70;99.90;;;;;;5007108;28;20037;-85
2023/02/14 00:50:45;;;;;;;19.80;12.25;;;4.70;99.90;;;;;;5009438;28;20030;-86
2023/02/14 00:53:11;;;;;;;19.67;13.57;;;4.70;99.90;;;;;;5006104;28;20069;-86
2023/02/14 00:55:36;;;;;;;19.48;12.48;;;4.70;99.90;;;;;;5004085;28;20027;-87
2023/02/14 00:58:02;;;;;;;17.38;11.73;;;4.60;99.90;;;;;;5005775;28;20018;-87
2023/02/14 01:00:27;;;;;;;18.00;11.38;;;4.60;99.90;;;;;;5006232;28;20045;-85
2023/02/14 01:02:53;;;;;;;17.80;11.70;;;4.60;99.90;;;;;;5009093;28;20103;-87
2023/02/14 01:05:19;;;;;;;18.65;12.55;;;4.50;99.90;;;;;;5007472;28;20077;-82
2023/02/14 01:07:47;;;;;;;18.23;11.93;;;4.50;99.90;;;;;;5020737;28;20030;-84
2023/02/14 01:10:13;;;;;;;17.63;11.63;;;4.50;99.90;;;;;;5003446;28;20117;-84
2023/02/14 01:12:38;;;;;;;20.00;12.48;;;4.40;99.90;;;;;;5008019;28;20582;-85
2023/02/14 01:15:04;;;;;;;18.42;12.15;;;4.50;99.90;;;;;;5007736;28;20030;-87
2023/02/14 01:17:30;;;;;;;17.65;12.15;;;4.40;99.90;;;;;;5008134;28;20045;-86
2023/02/14 01:19:55;;;;;;;17.27;11.52;;;4.30;99.90;;;;;;5006932;28;20068;-86
2023/02/14 01:22:21;;;;;;;17.60;12.10;;;4.30;99.90;;;;;;5005289;28;20104;-86
2023/02/14 01:24:46;;;;;;;17.60;12.05;;;4.30;99.90;;;;;;5020889;28;20464;-84
2023/02/14 01:27:12;;;;;;;17.90;12.38;;;4.30;99.90;;;;;;5007781;28;20041;-88
2023/02/14 01:29:37;;;;;;;18.98;12.00;;;4.20;99.90;;;;;;5006749;28;20033;-86
2023/02/14 01:32:03;;;;;;;18.63;11.75;;;4.20;99.90;;;;;;5006095;28;20026;-85
2023/02/14 01:34:29;;;;;;;16.63;11.30;;;4.10;99.90;;;;;;5025118;28;20571;-90
2023/02/14 01:36:54;;;;;;;16.75;11.10;;;4.10;99.90;;;;;;5026083;28;20473;-83
2023/02/14 01:39:20;;;;;;;18.35;11.32;;;4.10;99.90;;;;;;5026627;28;20025;-83
2023/02/14 01:41:47;;;;;;;17.98;12.13;;;4.10;99.90;;;;;;5027608;28;20089;-84
2023/02/14 01:44:13;;;;;;;17.55;11.55;;;4.20;99.90;;;;;;5020524;28;20046;-82
2023/02/14 01:46:39;;;;;;;18.70;12.07;;;4.00;99.90;;;;;;5034712;28;20471;-82
2023/02/14 01:49:14;;;;;;;15.57;10.65;;;4.00;99.90;;;;;;5009283;28;20025;-86
2023/02/14 01:51:54;;;;;;;16.15;10.82;;;3.90;99.90;;;;;;5019180;28;20472;-87
2023/02/14 01:54:24;;;;;;;16.85;11.40;;;3.90;99.90;;;;;;5016741;28;20061;-87
2023/02/14 01:56:55;;;;;;;17.55;11.18;;;3.90;99.90;;;;;;5002386;28;20026;-83
2023/02/14 01:59:26;;;;;;;17.42;11.20;;;3.90;99.90;;;;;;5002740;28;20038;-86
2023/02/14 02:01:53;;;;;;;16.63;10.73;;;3.80;99.90;;;;;;5001039;28;20380;-85
2023/02/14 02:04:29;;;;;;;16.45;11.07;;;3.80;99.90;;;;;;5003732;28;20029;-87
2023/02/14 02:06:58;;;;;;;17.45;11.57;;;3.80;99.90;;;;;;5014840;28;20053;-84
2023/02/14 02:09:39;;;;;;;16.35;10.48;;;3.80;99.90;;;;;;5016908;28;20046;-86
2023/02/14 02:12:05;;;;;;;16.00;10.98;;;3.70;99.90;;;;;;5000517;28;20022;-87
2023/02/14 02:14:32;;;;;;;15.35;10.25;;;3.70;99.90;;;;;;4999576;28;20077;-85
2023/02/14 02:17:40;;;;;;;14.75;9.65;;;3.70;99.90;;;;;;4999475;28;20030;-86
2023/02/14 02:20:40;;;;;;;16.88;10.32;;;3.70;99.90;;;;;;5017535;28;20053;-84
2023/02/14 02:23:24;;;;;;;14.10;9.15;;;3.60;99.90;;;;;;5018701;28;20045;-85
2023/02/14 02:25:56;;;;;;;13.93;9.05;;;3.60;99.90;;;;;;5004005;28;20026;-85
2023/02/14 02:29:04;;;;;;;14.07;9.23;;;3.60;99.90;;;;;;5001964;28;20515;-86
2023/02/14 02:32:05;;;;;;;15.00;9.30;;;3.60;99.90;;;;;;5005921;28;20030;-86
2023/02/14 02:34:55;;;;;;;15.52;9.85;;;3.50;99.90;;;;;;4999601;28;20034;-88
2023/02/14 02:37:51;;;;;;;14.68;9.43;;;3.50;99.90;;;;;;5018913;28;20061;-87
2023/02/14 02:40:38;;;;;;;16.05;9.52;;;3.50;99.90;;;;;;5019689;28;20022;-86
2023/02/14 02:43:35;;;;;;;13.23;8.93;;;3.50;99.90;;;;;;5000690;28;20074;-86
2023/02/14 02:58:24;;;;;;;14.80;9.45;;;3.40;99.90;;;;;;5006810;28;20041;-87
2023/02/14 03:00:52;;;;;;;15.43;9.30;;;3.30;99.90;;;;;;5002437;28;20025;-85
2023/02/14 03:06:05;;;;;;;13.70;9.15;;;3.20;99.90;;;;;;5003597;28;20622;-84
2023/02/14 03:08:32;;;;;;;13.82;8.90;;;3.20;99.90;;;;;;5001076;28;20031;-86
2023/02/14 03:10:59;;;;;;;13.15;8.82;;;3.20;99.90;;;;;;4998855;28;20041;-86
2023/02/14 03:13:35;;;;;;;14.65;8.85;;;3.20;99.90;;;;;;5014747;28;20033;-82
2023/02/14 03:16:09;;;;;;;14.45;8.65;;;3.20;99.90;;;;;;5013649;28;20193;-87
2023/02/14 03:19:09;;;;;;;14.32;8.75;;;3.10;99.90;;;;;;5000216;28;20579;-87
2023/02/14 03:21:49;;;;;;;15.45;9.43;;;3.10;99.90;;;;;;4999862;28;20049;-88
2023/02/14 03:24:26;;;;;;;13.25;8.15;;;3.10;99.90;;;;;;5014024;28;20499;-88
2023/02/14 03:27:25;;;;;;;12.25;8.05;;;3.10;99.90;;;;;;5000768;28;20030;-88
2023/02/14 03:30:06;;;;;;;12.77;8.82;;;3.10;99.90;;;;;;5000848;28;20049;-87
2023/02/14 03:33:02;;;;;;;13.93;8.98;;;3.10;99.90;;;;;;5004792;28;20528;-86
2023/02/14 03:36:05;;;;;;;12.65;8.57;;;3.10;99.90;;;;;;5006336;28;20034;-87
2023/02/14 03:38:49;;;;;;;13.30;8.30;;;3.10;99.90;;;;;;5001379;28;20072;-88
2023/02/14 03:41:22;;;;;;;12.18;8.18;;;3.10;99.90;;;;;;5004108;28;20033;-85
2023/02/14 03:43:52;;;;;;;12.40;8.15;;;3.10;99.90;;;;;;5001737;28;20046;-81
2023/02/14 03:46:29;;;;;;;14.30;8.48;;;3.00;99.90;;;;;;4997769;28;20499;-83
2023/02/14 03:48:58;;;;;;;13.43;9.13;;;3.00;99.90;;;;;;4997540;28;20038;-84
2023/02/14 03:51:27;;;;;;;13.18;8.82;;;2.90;99.90;;;;;;5000371;28;22150;-87
2023/02/14 03:53:56;;;;;;;13.80;8.98;;;2.90;99.90;;;;;;5004058;28;20105;-82
2023/02/14 03:56:35;;;;;;;14.68;9.18;;;2.90;99.90;;;;;;5000432;28;20027;-86
2023/02/14 03:59:13;;;;;;;13.73;9.15;;;2.80;99.90;;;;;;5002944;28;20177;-85
2023/02/14 04:01:44;;;;;;;14.43;8.68;;;2.80;99.90;;;;;;5006951;28;20022;-84
2023/02/14 04:04:13;;;;;;;13.32;8.73;;;2.80;99.90;;;;;;5013019;28;20053;-84
2023/02/14 04:06:39;;;;;;;14.43;9.13;;;2.80;99.90;;;;;;5001535;28;20029;-85
2023/02/14 04:09:05;;;;;;;14.88;9.18;;;2.80;99.90;;;;;;4997164;28;20502;-86
2023/02/14 04:11:33;;;;;;;13.57;8.98;;;2.70;99.90;;;;;;5000699;28;20026;-85
2023/02/14 04:14:00;;;;;;;13.93;9.02;;;2.70;99.90;;;;;;5001047;28;20026;-85
2023/02/14 04:16:26;;;;;;;14.60;9.27;;;2.70;99.90;;;;;;5001083;28;20053;-84
2023/02/14 04:21:35;;;;;;;15.32;9.73;;;2.70;99.90;;;;;;5003981;28;20041;-85
2023/02/14 04:24:01;;;;;;;13.68;8.40;;;2.70;99.90;;;;;;5005549;28;20030;-84
2023/02/14 04:26:30;;;;;;;13.05;8.43;;;2.70;99.90;;;;;;5008227;28;20043;-82
2023/02/14 04:28:56;;;;;;;14.02;8.95;;;2.60;99.90;;;;;;5011343;28;20761;-88
2023/02/14 04:31:21;;;;;;;11.75;7.53;;;2.60;99.90;;;;;;5007288;28;20029;-83
2023/02/14 04:33:49;;;;;;;13.13;8.40;;;2.60;99.90;;;;;;5007417;28;20033;-82
2023/02/14 04:36:14;;;;;;;12.77;8.23;;;2.60;99.90;;;;;;5007739;28;20033;-85
2023/02/14 04:38:40;;;;;;;13.98;9.00;;;2.50;99.90;;;;;;5020308;28;20444;-86
2023/02/14 04:41:06;;;;;;;12.80;7.70;;;2.60;99.90;;;;;;5005834;28;20042;-85
2023/02/14 04:43:31;;;;;;;12.57;8.25;;;2.50;99.90;;;;;;5003017;28;20054;-85
2023/02/14 04:45:57;;;;;;;11.82;7.50;;;2.50;99.90;;;;;;5005375;28;20029;-86
2023/02/14 04:48:22;;;;;;;12.90;8.30;;;2.50;99.90;;;;;;5005082;28;20467;-87
2023/02/14 04:50:52;;;;;;;13.73;8.90;;;2.50;99.90;;;;;;5009824;28;20029;-85
2023/02/14 04:53:18;;;;;;;13.30;8.32;;;2.50;99.90;;;;;;5008311;28;20511;-85
2023/02/14 04:55:44;;;;;;;13.82;8.35;;;2.40;99.90;;;;;;5008363;28;20034;-87
2023/02/14 04:58:10;;;;;;;13.05;8.38;;;2.40;99.90;;;;;;5007343;28;20476;-86
2023/02/14 05:00:35;;;;;;;13.10;8.45;;;2.40;99.90;;;;;;5003761;28;20040;-85
2023/02/14 05:03:01;;;;;;;12.40;8.20;;;2.30;99.90;;;;;;5005845;28;20431;-87
2023/02/14 05:05:26;;;;;;;14.35;9.05;;;2.40;99.90;;;;;;5007930;28;20021;-86
2023/02/14 05:07:52;;;;;;;11.38;7.30;;;2.40;99.90;;;;;;5003261;28;20037;-86
2023/02/14 05:10:18;;;;;;;12.15;8.30;;;2.40;99.90;;;;;;5020695;28;20132;-87
2023/02/14 05:12:43;;;;;;;11.77;8.07;;;2.40;99.90;;;;;;5010217;28;20392;-86
2023/02/14 05:15:09;;;;;;;12.18;7.72;;;2.30;99.90;;;;;;5021762;28;20180;-86
2023/02/14 05:17:36;;;;;;;12.23;7.40;;;2.40;99.90;;;;;;5010730;28;20468;-87
2023/02/14 05:20:03;;;;;;;11.35;7.90;;;2.30;99.90;;;;;;5001716;28;20034;-86
2023/02/14 05:22:30;;;;;;;13.82;8.48;;;2.30;99.90;;;;;;5005279;28;20504;-85
2023/02/14 05:24:56;;;;;;;11.73;7.78;;;2.20;99.90;;;;;;5004057;28;20050;-85
2023/02/14 05:27:21;;;;;;;11.70;7.80;;;2.20;99.90;;;;;;5003646;28;20129;-87
2023/02/14 05:29:47;;;;;;;12.40;7.10;;;2.20;99.90;;;;;;5007165;28;20046;-88
2023/02/14 05:32:12;;;;;;;12.27;7.90;;;2.20;99.90;;;;;;5005447;28;20379;-86
2023/02/14 05:34:38;;;;;;;11.93;7.90;;;2.20;99.90;;;;;;5006745;28;20388;-86
2023/02/14 05:37:03;;;;;;;12.40;7.63;;;2.10;99.90;;;;;;5003354;28;20030;-82
2023/02/14 05:39:29;;;;;;;10.65;7.35;;;2.10;99.90;;;;;;5019920;28;20046;-84
2023/02/14 05:41:55;;;;;;;11.60;7.53;;;2.10;99.90;;;;;;5004271;28;20030;-86
2023/02/14 05:44:21;;;;;;;12.27;7.55;;;2.10;99.90;;;;;;5004556;28;20058;-84
2023/02/14 05:46:47;;;;;;;11.07;7.55;;;2.10;99.90;;;;;;5002049;28;20030;-85
2023/02/14 05:49:12;;;;;;;13.20;8.15;;;2.00;99.90;;;;;;5000289;28;20034;-86
2023/02/14 05:51:38;;;;;;;14.60;8.02;;;2.00;99.90;;;;;;5002642;28;20037;-85
2023/02/14 05:54:03;;;;;;;13.57;8.75;;;2.00;99.90;;;;;;5000135;28;20030;-84
2023/02/14 05:56:32;;;;;;;12.02;7.75;;;2.00;99.90;;;;;;5002729;28;20018;-85
2023/02/14 05:58:57;;;;;;;12.30;7.80;;;2.00;99.90;;;;;;5008497;28;20081;-85
2023/02/14 06:01:23;;;;;;;13.32;7.95;;;2.00;99.90;;;;;;5027727;28;20037;-82
2023/02/14 06:03:49;;;;;;;12.57;8.10;;;1.90;99.90;;;;;;5024714;28;20022;-83
2023/02/14 06:06:15;;;;;;;13.30;7.75;;;1.90;99.90;;;;;;5019308;28;20088;-81
2023/02/14 06:08:40;;;;;;;11.57;7.97;;;1.90;99.90;;;;;;5017326;28;20396;-84
2023/02/14 06:11:06;;;;;;;12.50;8.15;;;1.90;99.90;;;;;;5017367;28;20037;-84
2023/02/14 06:13:31;;;;;;;10.73;7.18;;;1.90;99.90;;;;;;5007114;28;20023;-84
2023/02/14 06:15:57;;;;;;;12.98;8.07;;;1.90;99.90;;;;;;5005525;28;20464;-83
2023/02/14 06:18:26;;;;;;;12.73;8.55;;;1.90;99.90;;;;;;5005241;28;20641;-87
2023/02/14 06:20:53;;;;;;;12.23;8.27;;;1.90;99.90;;;;;;5001561;28;20033;-87
2023/02/14 06:23:18;;;;;;;13.27;8.10;;;1.90;99.90;;;;;;5005881;28;20022;-87
2023/02/14 06:25:44;;;;;;;13.00;7.63;;;1.80;99.90;;;;;;5005316;28;20070;-86
2023/02/14 06:28:10;;;;;;;13.65;8.40;;;1.80;99.90;;;;;;5004423;28;20915;-87
2023/02/14 06:30:35;;;;;;;11.57;7.95;;;1.80;99.90;;;;;;4984989;28;20057;-85
2023/02/14 06:33:04;;;;;;;12.57;8.40;;;1.80;99.90;;;;;;5004337;28;20018;-87
2023/02/14 06:35:29;;;;;;;12.85;7.78;;;1.80;99.90;;;;;;5005173;28;20033;-83
2023/02/14 06:37:55;;;;;;;14.98;8.43;;;1.80;99.90;;;;;;5004450;28;20042;-85
2023/02/14 06:40:20;;;;;;;13.43;8.50;;;1.80;99.90;;;;;;5001303;28;20033;-86
2023/02/14 06:42:46;;;;;;;13.60;8.43;;;1.80;99.90;;;;;;5006036;28;20030;-86
2023/02/14 06:45:12;;;;;;;12.25;8.13;;;1.70;99.90;;;;;;5004738;28;20123;-83
2023/02/14 06:47:37;;;;;;;11.15;7.30;;;1.80;99.90;;;;;;5017187;28;20349;-87
2023/02/14 06:50:04;;;;;;;11.75;7.68;;;1.80;99.90;;;;;;5005635;28;20100;-86
2023/02/14 06:52:33;;;;;;;10.98;7.47;;;1.70;99.90;;;;;;5005458;28;20023;-88
2023/02/14 06:55:01;;;;;;;11.93;7.78;;;1.80;99.90;;;;;;5003802;28;20034;-87
2023/02/14 06:57:27;;;;;;;12.60;8.15;;;1.80;99.90;;;;;;5005285;28;20029;-86
2023/02/14 06:59:52;;;;;;;13.35;8.55;;;1.70;99.90;;;;;;5005772;28;20116;-86
2023/02/14 07:02:18;;;;;;;11.70;7.85;;;1.70;99.90;;;;;;5018705;28;20022;-88
2023/02/14 07:04:46;;;;;;;13.38;8.88;;;1.70;99.90;;;;;;5006659;28;20026;-87
2023/02/14 07:07:12;;;;;;;12.52;8.00;;;1.70;99.90;;;;;;5003883;28;20048;-85
2023/02/14 07:09:38;;;;;;;12.60;7.68;;;1.70;99.90;;;;;;5003931;28;20380;-82
2023/02/14 07:12:03;;;;;;;11.68;8.13;;;1.70;99.90;;;;;;5006317;28;20022;-87
2023/02/14 07:14:29;;;;;;;12.43;7.88;;;1.70;99.90;;;;;;5005578;28;20022;-87
2023/02/14 07:16:55;;;;;;;12.45;8.15;;;1.70;99.90;;;;;;5005431;28;20057;-86
2023/02/14 07:19:20;;;;;;;14.73;8.48;;;1.70;99.90;;;;;;5006227;28;20073;-87
2023/02/14 07:21:46;;;;;;;13.27;8.80;;;1.70;99.90;;;;;;5002807;28;20073;-84
2023/02/14 07:24:11;;;;;;;13.55;8.48;;;1.70;99.90;;;;;;5000666;28;20456;-86
2023/02/14 07:26:37;;;;;;;15.02;9.13;;;1.70;99.90;;;;;;5004949;28;20029;-84
2023/02/14 07:29:02;;;;;;;13.43;9.48;;;1.70;99.90;;;;;;5015450;28;20029;-85
2023/02/14 07:31:28;;;;;;;12.98;8.85;;;1.80;99.90;;;;;;5007165;28;20041;-85
2023/02/14 07:33:53;;;;;;;12.77;8.52;;;1.80;99.90;;;;;;5014137;28;20076;-81
2023/02/14 07:36:19;;;;;;;14.75;8.68;;;1.80;99.90;;;;;;5002593;28;20523;-86
2023/02/14 07:38:45;;;;;;;12.05;8.27;;;1.80;99.90;;;;;;5003266;28;20850;-82
2023/02/14 07:41:10;;;;;;;12.82;8.82;;;1.80;99.90;;;;;;5002223;28;20114;-84
2023/02/14 07:43:36;;;;;;;13.80;8.90;;;1.90;99.90;;;;;;5005910;28;20076;-86
2023/02/14 07:46:02;;;;;;;12.10;8.13;;;1.90;99.90;;;;;;4999413;28;20531;-85
2023/02/14 07:48:28;;;;;;;12.35;8.38;;;1.90;99.90;;;;;;5016331;28;20113;-84
2023/02/14 07:50:57;;;;;;;11.85;7.45;;;1.90;99.90;;;;;;4995322;28;20359;-84
2023/02/14 07:53:23;;;;;;;12.77;8.10;;;2.00;99.90;;;;;;4999509;28;20036;-83
2023/02/14 07:55:50;;;;;;;13.85;8.48;;;2.00;99.90;;;;;;4996900;28;20033;-84
2023/02/14 07:58:15;;;;;;;13.18;8.45;;;2.10;99.90;;;;;;4996909;28;20053;-83
2023/02/14 08:00:41;;;;;;;12.57;8.30;;;2.10;99.90;;;;;;4995811;28;20651;-84
2023/02/14 08:03:07;;;;;;;13.05;8.35;;;2.20;99.90;;;;;;4999469;28;20048;-85
2023/02/14 08:05:34;;;;;;;14.60;8.88;;;2.20;99.90;;;;;;5002048;28;20507;-81
2023/02/14 08:07:59;;;;;;;12.10;8.40;;;2.30;99.90;;;;;;4997813;28;20062;-82
2023/02/14 08:10:25;;;;;;;12.32;8.40;;;2.40;99.90;;;;;;5003445;28;20049;-83
2023/02/14 08:12:59;;;;;;;12.00;7.70;;;2.40;99.90;;;;;;5015087;28;20010;-85
2023/02/14 08:18:16;;;;;;;12.38;7.55;;;2.60;99.90;;;;;;4999325;28;20049;-83
2023/02/14 08:20:43;;;;;;;12.50;7.40;;;2.60;99.90;;;;;;4999733;28;20080;-84
2023/02/14 08:23:09;;;;;;;11.93;7.68;;;2.70;99.90;;;;;;4999374;28;20023;-85
2023/02/14 08:25:35;;;;;;;12.60;7.35;;;2.80;99.90;;;;;;4998736;28;20381;-86
2023/02/14 08:28:03;;;;;;;11.57;6.95;;;2.90;99.90;;;;;;4997890;28;20033;-85
2023/02/14 08:30:30;;;;;;;11.60;6.90;;;3.00;99.90;;;;;;5003978;28;20500;-83
2023/02/14 08:32:56;;;;;;;13.18;7.90;;;3.10;99.90;;;;;;4999457;28;20022;-87
2023/02/14 08:35:22;;;;;;;13.00;8.10;;;3.30;99.90;;;;;;4998826;28;20030;-84
2023/02/14 08:37:47;;;;;;;12.02;7.75;;;3.40;99.90;;;;;;5001459;28;20014;-85
2023/02/14 08:40:13;;;;;;;11.90;7.35;;;3.50;99.90;;;;;;4996869;28;22257;-81
2023/02/14 08:42:39;;;;;;;11.13;7.43;;;3.60;99.90;;;;;;5002057;28;20392;-84
2023/02/14 08:45:05;;;;;;;11.52;8.35;;;3.70;99.90;;;;;;4998127;28;20093;-84
2023/02/14 08:47:34;;;;;;;11.85;7.40;;;3.80;99.90;;;;;;4999261;28;20026;-84
2023/02/14 08:50:02;;;;;;;11.80;8.05;;;3.90;99.90;;;;;;5001395;28;20496;-85
2023/02/14 08:52:27;;;;;;;12.00;7.93;;;4.00;99.90;;;;;;5012898;28;20022;-86
2023/02/14 08:54:53;;;;;;;11.23;7.88;;;4.10;99.90;;;;;;4997894;28;20032;-86
2023/02/14 08:57:18;;;;;;;12.00;7.65;;;4.20;99.90;;;;;;5001199;28;20034;-83
2023/02/14 08:59:47;;;;;;;12.75;8.00;;;4.40;99.90;;;;;;5000376;28;20022;-84
2023/02/14 09:02:13;;;;;;;12.65;7.68;;;4.40;99.90;;;;;;4999617;28;20018;-86
2023/02/14 09:04:39;;;;;;;13.15;8.18;;;4.50;99.90;;;;;;5001807;28;20037;-83
2023/02/14 09:07:04;;;;;;;13.43;8.35;;;4.60;99.90;;;;;;5000421;28;20049;-84
2023/02/14 09:09:30;;;;;;;13.55;8.43;;;4.80;99.90;;;;;;4997090;28;20038;-82
2023/02/14 09:11:56;;;;;;;13.80;8.32;;;4.90;99.90;;;;;;4999171;28;20029;-86
2023/02/14 09:14:23;;;;;;;14.40;9.23;;;5.00;99.90;;;;;;4999214;28;20109;-84
2023/02/14 09:16:49;;;;;;;13.63;9.20;;;5.10;99.90;;;;;;4998124;28;20030;-85
2023/02/14 09:19:15;;;;;;;15.60;9.02;;;5.30;99.90;;;;;;5001939;28;20539;-83
2023/02/14 09:21:41;;;;;;;14.50;9.32;;;5.40;99.90;;;;;;5003699;28;20148;-84
2023/02/14 09:24:06;;;;;;;15.25;10.73;;;5.50;99.90;;;;;;4999540;28;20648;-86
2023/02/14 09:26:32;;;;;;;17.23;11.27;;;5.70;99.90;;;;;;5003711;28;20022;-84
2023/02/14 09:28:58;;;;;;;15.07;10.75;;;6.60;99.90;;;;;;4997057;28;20018;-83
2023/02/14 09:31:24;;;;;;;15.18;10.45;;;8.30;99.90;;;;;;5001088;28;20065;-85
2023/02/14 09:33:51;;;;;;;12.35;8.98;;;10.00;99.90;;;;;;5015322;28;20490;-84
2023/02/14 09:39:01;;;;;;;11.60;8.05;;;12.80;99.90;;;;;;4999201;28;22146;-84
2023/02/14 09:41:30;;;;;;;10.77;7.53;;;13.90;99.90;;;;;;5004279;28;20030;-86
2023/02/14 09:43:59;;;;;;;11.63;7.35;;;14.70;99.90;;;;;;5000303;28;20046;-84
2023/02/14 09:46:26;;;;;;;9.98;7.38;;;15.40;99.90;;;;;;5005657;28;20492;-83
2023/02/14 09:48:55;;;;;;;12.10;8.20;;;16.10;99.90;;;;;;5002173;28;20046;-84
2023/02/14 09:51:25;;;;;;;11.00;8.25;;;16.50;99.90;;;;;;5003334;28;20018;-81
2023/02/14 09:54:01;;;;;;;10.70;8.25;;;17.00;99.90;;;;;;5004104;28;20030;-86
2023/02/14 09:56:52;;;;;;;12.02;7.53;;;17.50;99.90;;;;;;5000632;28;20034;-85
2023/02/14 09:59:43;;;;;;;14.52;7.93;;;18.00;99.90;;;;;;5003574;28;20476;-86
2023/02/14 10:02:31;;;;;;;13.30;8.77;;;18.30;99.90;;;;;;5017113;28;20026;-85
2023/02/14 10:05:20;;;;;;;10.75;8.05;;;18.50;99.90;;;;;;5005056;28;20038;-85
2023/02/14 10:08:03;;;;;;;9.75;7.53;;;18.70;99.90;;;;;;5021799;28;20090;-82
2023/02/14 10:10:42;;;;;;;9.82;7.07;;;19.00;99.90;;;;;;5018289;28;20038;-85
2023/02/14 10:13:31;;;;;;;10.90;8.32;;;19.20;99.90;;;;;;5018626;28;20448;-85
2023/02/14 10:16:09;;;;;;;10.70;7.13;;;19.50;99.90;;;;;;5012098;28;20030;-84
2023/02/14 10:19:25;;;;;;;9.57;7.90;;;19.80;99.90;;;;;;5025846;28;20034;-86
2023/02/14 10:21:59;;;;;;;10.02;7.13;;;20.10;99.90;;;;;;5007282;28;20041;-85
2023/02/14 10:24:36;;;;;;;11.38;7.80;;;20.20;99.90;;;;;;5018878;28;20021;-85
2023/02/14 10:27:11;;;;;;;10.63;7.45;;;20.60;99.90;;;;;;5013834;28;20088;-83
2023/02/14 10:29:39;;;;;;;10.05;7.65;;;20.80;99.90;;;;;;4998839;28;20037;-84
2023/02/14 10:32:17;;;;;;;9.63;7.28;;;21.00;99.90;;;;;;4999043;28;20680;-85
2023/02/14 10:34:48;;;;;;;9.60;8.25;;;21.30;99.90;;;;;;5004905;28;20026;-86
2023/02/14 10:37:59;;;;;;;10.38;7.43;;;21.50;99.90;;;;;;5001813;28;20053;-86
2023/02/14 10:40:47;;;;;;;9.48;7.13;;;21.60;99.90;;;;;;5001432;28;20049;-86
2023/02/14 10:44:11;;;;;;;8.15;6.72;;;21.70;99.90;;;;;;5015201;28;20052;-83
2023/02/14 10:46:58;;;;;;;;;;;22.00;99.90;;;;;;4996333;28;20038;-85
2023/02/14 10:49:44;;;;;;;8.32;6.95;;;21.90;99.90;;;;;;4994953;28;20458;-86
2023/02/14 10:52:23;;;;;;;9.52;7.22;;;22.20;99.90;;;;;;4998882;28;20050;-84
2023/02/14 10:54:58;;;;;;;11.88;7.63;;;22.30;99.90;;;;;;5001780;28;20116;-85
2023/02/14 10:57:44;;;;;;;8.75;6.38;;;22.40;99.90;;;;;;5001939;28;20037;-88
2023/02/14 11:00:33;;;;;;;9.00;7.63;;;22.50;99.90;;;;;;5002686;28;20035;-85
2023/02/14 11:03:04;;;;;;;8.65;6.70;;;22.80;99.90;;;;;;5000861;28;20030;-85
2023/02/14 11:05:46;;;;;;;8.90;6.90;;;22.70;99.90;;;;;;5000390;28;20018;-80
2023/02/14 11:08:18;;;;;;;8.98;8.02;;;22.80;99.90;;;;;;4997774;28;20396;-81
2023/02/14 11:10:44;;;;;;;8.90;7.30;;;22.90;99.90;;;;;;4999811;28;20034;-83
2023/02/14 11:13:34;;;;;;;10.48;7.40;;;22.90;99.90;;;;;;5006073;28;20030;-83
2023/02/14 11:16:07;;;;;;;8.63;6.90;;;22.90;99.90;;;;;;5017118;28;20049;-87
2023/02/14 11:18:34;;;;;;;9.85;7.10;;;23.10;99.90;;;;;;5007882;28;20036;-81
2023/02/14 11:21:21;;;;;;;8.80;7.60;;;23.20;99.90;;;;;;5006228;28;20033;-80
2023/02/14 11:23:49;;;;;;;8.90;6.90;;;23.30;99.90;;;;;;5008488;28;20025;-83
2023/02/14 11:26:28;;;;;;;10.48;8.65;;;23.20;99.90;;;;;;5019758;28;20502;-85
2023/02/14 11:29:01;;;;;;;10.38;7.70;;;23.30;99.90;;;;;;5000131;28;20068;-85
2023/02/14 11:31:31;;;;;;;9.05;6.88;;;23.20;99.90;;;;;;5017946;28;20029;-85
2023/02/14 11:33:58;;;;;;;7.88;6.38;;;23.40;99.90;;;;;;5016793;28;20034;-83
2023/02/14 11:36:25;;;;;;;9.30;6.32;;;23.60;99.90;;;;;;5009103;28;20022;-85
2023/02/14 11:39:01;;;;;;;8.95;5.40;;;23.80;99.90;;;;;;5005446;28;20018;-86
2023/02/14 11:41:49;;;;;;;8.48;6.45;;;24.10;99.90;;;;;;5004232;28;20060;-90
2023/02/14 11:44:21;;;;;;;7.45;5.90;;;24.30;99.90;;;;;;5000922;28;20045;-84
2023/02/14 11:46:48;;;;;;;8.70;6.70;;;24.50;99.90;;;;;;5003245;28;20040;-82
2023/02/14 11:49:34;;;;;;;8.05;5.88;;;24.60;99.60;;;;;;5001741;28;20382;-83
2023/02/14 11:52:14;;;;;;;8.93;6.35;;;24.50;99.50;;;;;;5000933;28;20391;-83
2023/02/14 11:54:41;;;;;;;8.07;6.13;;;24.40;99.60;;;;;;5001648;28;20026;-84
2023/02/14 11:57:20;;;;;;;7.55;5.85;;;24.30;99.40;;;;;;5006005;28;20030;-85
2023/02/14 11:59:51;;;;;;;7.18;5.88;;;24.40;99.00;;;;;;5014069;28;20610;-81
2023/02/14 12:02:43;;;;;;;8.15;6.10;;;24.60;98.90;;;;;;5003553;28;20060;-86
2023/02/14 12:05:22;;;;;;;7.68;5.88;;;24.90;98.50;;;;;;5000064;28;20084;-81
2023/02/14 12:07:51;;;;;;;7.40;5.93;;;25.00;97.90;;;;;;5001939;28;20060;-82
2023/02/14 12:10:21;;;;;;;7.30;5.38;;;25.00;97.90;;;;;;5012400;28;20026;-82
2023/02/14 12:12:54;;;;;;;8.57;6.45;;;24.80;98.10;;;;;;4997297;28;20059;-83
2023/02/14 12:15:36;;;;;;;7.28;6.10;;;24.60;97.60;;;;;;5001760;28;20034;-83
2023/02/14 12:18:11;;;;;;;8.73;6.53;;;24.70;97.50;;;;;;4999931;28;20030;-83
2023/02/14 12:20:56;;;;;;;9.27;8.00;;;24.80;97.20;;;;;;5004911;28;20041;-84
2023/02/14 12:23:45;;;;;;;8.60;6.45;;;24.80;96.50;;;;;;4998076;28;20042;-83
2023/02/14 12:26:23;;;;;;;9.68;7.25;;;24.70;96.60;;;;;;4998814;28;20993;-83
2023/02/14 12:29:11;;;;;;;8.75;6.13;;;24.90;96.10;;;;;;4999439;28;20022;-82
2023/02/14 12:31:37;;;;;;;7.03;5.63;;;25.00;96.20;;;;;;5003468;28;20415;-81
2023/02/14 12:34:04;;;;;;;10.63;6.97;;;25.00;96.30;;;;;;5001892;28;20027;-84
2023/02/14 12:36:51;;;;;;;7.63;6.22;;;25.20;95.70;;;;;;5010340;28;20037;-84
2023/02/14 12:39:31;;;;;;;9.20;6.22;;;25.20;95.90;;;;;;5008785;28;20557;-81
2023/02/14 12:42:17;;;;;;;8.13;6.55;;;25.20;96.00;;;;;;5008104;28;20047;-81
2023/02/14 12:45:04;;;;;;;7.90;6.13;;;24.90;95.70;;;;;;5024799;28;20054;-84
2023/02/14 12:48:14;;;;;;;10.13;6.75;;;25.00;95.60;;;;;;5020121;28;20029;-84
2023/02/14 12:50:47;;;;;;;7.30;5.63;;;25.20;95.20;;;;;;5006475;28;20034;-85
2023/02/14 12:53:25;;;;;;;8.40;6.07;;;25.20;95.70;;;;;;5004360;28;20026;-83
2023/02/14 12:56:02;;;;;;;8.70;7.07;;;25.10;95.30;;;;;;5020895;28;20032;-83
2023/02/14 12:58:39;;;;;;;6.28;5.00;;;25.10;95.20;;;;;;5026535;28;20077;-87
2023/02/14 13:01:42;;;;;;;7.80;6.40;;;24.90;95.90;;;;;;5027939;28;20038;-85
2023/02/14 13:04:26;;;;;;;;;;;24.70;94.90;;;;;;5009104;28;20034;-86
2023/02/14 13:07:08;;;;;;;6.05;4.70;;;24.60;95.20;;;;;;5010401;28;19985;-82
2023/02/14 13:09:45;;;;;;;9.43;6.97;;;24.80;95.30;;;;;;5008710;28;20140;-86
2023/02/14 13:12:16;;;;;;;6.53;5.05;;;25.10;95.20;;;;;;5007824;28;20030;-87
2023/02/14 13:15:03;;;;;;;8.95;5.38;;;25.50;95.10;;;;;;5020975;28;20085;-84
2023/02/14 13:17:45;;;;;;;10.15;7.32;;;25.70;94.50;;;;;;5004227;28;20451;-80
2023/02/14 13:20:37;;;;;;;9.63;6.18;;;26.10;93.40;;;;;;5017782;28;20073;-84
2023/02/14 13:23:13;;;;;;;7.30;5.85;;;25.80;93.60;;;;;;5000233;28;20125;-82
2023/02/14 13:25:41;;;;;;;6.93;5.70;;;26.00;93.30;;;;;;5005864;28;20760;-82
2023/02/14 13:28:12;;;;;;;8.45;5.65;;;25.90;93.30;;;;;;5006219;28;20030;-82
2023/02/14 13:30:40;;;;;;;5.85;4.60;;;26.10;93.60;;;;;;5009093;28;20621;-81
2023/02/14 13:33:12;;;;;;;6.95;5.57;;;26.10;93.80;;;;;;5008063;28;20025;-85
2023/02/14 13:35:39;;;;;;;6.75;5.47;;;25.60;93.10;;;;;;5006621;28;20030;-80